Ocean Prize — 2ALK5 — position and weather

sailwx.info

Track history (hours):
 
Tides and Currents Weather Stations Pressure Air Temp Water Temp Dewpoint Dewpoint Depression Visibility Wind Speed Wind Dir Waves Ship Positions

Ocean Prize

Last reported at 2018-Feb-04 00:46 UTC. Time now 2018-Feb-25 02:18 UTC.
Position N 09°11' W 079°52'.
Warning: this ship's position is 21 days out of date.

Length 115 m; draft 8.6 m.

Type: Ship (hazmat cat C). MMSI: 235060752.

Date/timePositionNaut miles runAvg speedWind from/ knotsBaromVisibWave heightAir tempDewpointWater temp
2018-Feb-04 00:46N 09°11' W 079°52'412.3
2018-Feb-04 00:28N 09°13' W 079°55'4 7.8
2018-Feb-04 00:00N 09°16' W 079°55'0 0.4
2018-Feb-03 23:30N 09°16' W 079°55'0 0.9
2018-Feb-03 23:00N 09°17' W 079°55'1 2.0
2018-Feb-03 22:30N 09°18' W 079°55'1 1.9
2018-Feb-03 22:00N 09°19' W 079°55'3 5.7
2018-Feb-03 21:30N 09°22' W 079°55'1 2.3
2018-Feb-03 20:58N 09°23' W 079°56'0 0.0
2018-Feb-03 20:28N 09°23' W 079°56'0 0.0
2018-Feb-03 19:58N 09°23' W 079°56'0 0.0
2018-Feb-03 18:28N 09°23' W 079°56'0 0.0
2018-Feb-03 17:58N 09°23' W 079°56'0 0.0
2018-Feb-03 17:28N 09°23' W 079°56'0 0.0
2018-Feb-03 16:58N 09°23' W 079°56'0 0.0
2018-Feb-03 15:58N 09°23' W 079°56'0 0.0
2018-Feb-03 15:28N 09°23' W 079°56'0 0.0
2018-Feb-03 14:58N 09°23' W 079°56'0 0.1
2018-Feb-03 14:28N 09°23' W 079°56'0 0.2
2018-Feb-03 13:58N 09°23' W 079°56'1 1.8
2018-Feb-03 13:31N 09°23' W 079°55'2 3.9
2018-Feb-03 13:01N 09°25' W 079°56'0 0.7
2018-Feb-03 12:25N 09°25' W 079°56'0 0.0
2018-Feb-03 11:58N 09°25' W 079°56'0 0.0
2018-Feb-03 11:28N 09°25' W 079°56'0 0.0
2018-Feb-03 10:58N 09°25' W 079°56'0 0.0
2018-Feb-03 10:28N 09°25' W 079°56'0 0.0
2018-Feb-03 09:58N 09°25' W 079°56'0 0.0
2018-Feb-03 09:28N 09°25' W 079°56'0 0.0
2018-Feb-03 08:58N 09°25' W 079°56'0 0.0
2018-Feb-03 08:28N 09°25' W 079°56'0 0.0
2018-Feb-03 07:58N 09°25' W 079°56'0 0.0
2018-Feb-03 06:28N 09°25' W 079°56'0 0.0
2018-Feb-03 05:58N 09°25' W 079°56'0 0.0
2018-Feb-03 05:22N 09°25' W 079°56'0 0.0
2018-Feb-03 04:58N 09°25' W 079°56'0 0.0
2018-Feb-03 03:58N 09°25' W 079°56'0 0.0
2018-Feb-03 03:28N 09°25' W 079°56'0 0.0
2018-Feb-03 01:58N 09°25' W 079°56'0 0.0
2018-Feb-03 01:28N 09°25' W 079°56'0 0.0
2018-Feb-03 00:49N 09°25' W 079°56'0 0.0
2018-Feb-03 00:19N 09°25' W 079°56'0 0.0
2018-Feb-02 23:52N 09°25' W 079°56'0 0.0
2018-Feb-02 23:28N 09°25' W 079°56'0 0.0
2018-Feb-02 22:58N 09°25' W 079°56'0 0.0
2018-Feb-02 22:22N 09°25' W 079°56'0 0.1
2018-Feb-02 21:58N 09°25' W 079°56'0 0.0
2018-Feb-02 21:28N 09°25' W 079°56'0 0.0
2018-Feb-02 20:58N 09°25' W 079°56'0 0.0
2018-Feb-02 20:28N 09°25' W 079°56'0 0.0
2018-Feb-02 19:55N 09°25' W 079°56'0 0.0
2018-Feb-02 18:58N 09°25' W 079°56'0 0.0
2018-Feb-02 18:28N 09°25' W 079°56'0 0.0
2018-Feb-02 17:58N 09°25' W 079°56'0 0.0
2018-Feb-02 17:28N 09°25' W 079°56'0 0.0
2018-Feb-02 16:58N 09°25' W 079°56'0 0.0
2018-Feb-02 16:28N 09°25' W 079°56'0 0.0
2018-Feb-02 15:28N 09°25' W 079°56'0 0.0
2018-Feb-02 14:28N 09°25' W 079°56'0 0.0
2018-Feb-02 13:55N 09°25' W 079°56'0 0.0
2018-Feb-02 13:25N 09°25' W 079°56'0 0.0
2018-Feb-02 12:58N 09°25' W 079°56'0 0.0
2018-Feb-02 12:28N 09°25' W 079°56'0 0.0
2018-Feb-02 11:58N 09°25' W 079°56'0 0.0
2018-Feb-02 11:28N 09°25' W 079°56'0 0.0
2018-Feb-02 10:58N 09°25' W 079°56'0 0.0
2018-Feb-02 10:28N 09°25' W 079°56'0 0.0
2018-Feb-02 09:58N 09°25' W 079°56'0 0.0
2018-Feb-02 09:28N 09°25' W 079°56'0 0.0
2018-Feb-02 08:58N 09°25' W 079°56'0 0.0
2018-Feb-02 08:28N 09°25' W 079°56'0 0.0
2018-Feb-02 07:55N 09°25' W 079°56'0 0.0
2018-Feb-02 07:28N 09°25' W 079°56'0 0.0
2018-Feb-02 06:58N 09°25' W 079°56'0 0.0
2018-Feb-02 06:28N 09°25' W 079°56'0 0.0
2018-Feb-02 05:58N 09°25' W 079°56'0 0.0
2018-Feb-02 05:28N 09°25' W 079°56'0 0.0
2018-Feb-02 04:55N 09°25' W 079°56'0 0.0
2018-Feb-02 04:28N 09°25' W 079°56'0 0.0
2018-Feb-02 03:58N 09°25' W 079°56'0 0.0
2018-Feb-02 03:28N 09°25' W 079°56'0 0.0
2018-Feb-02 02:58N 09°25' W 079°56'0 0.0
2018-Feb-02 02:28N 09°25' W 079°56'0 0.0
2018-Feb-02 01:58N 09°25' W 079°56'0 0.0
2018-Feb-02 01:28N 09°25' W 079°56'0 0.0
2018-Feb-02 00:58N 09°25' W 079°56'0 0.0
2018-Feb-02 00:28N 09°25' W 079°56'0 0.0
2018-Feb-01 23:58N 09°25' W 079°56'0 0.0
2018-Feb-01 23:28N 09°25' W 079°56'0 0.0
2018-Feb-01 22:58N 09°25' W 079°56'0 0.0
2018-Feb-01 21:58N 09°25' W 079°56'0 0.0
2018-Feb-01 21:25N 09°25' W 079°56'0 0.0
2018-Feb-01 19:28N 09°25' W 079°56'0 0.0
2018-Feb-01 18:52N 09°25' W 079°56'0 0.0
2018-Feb-01 18:28N 09°25' W 079°56'0 0.0
2018-Feb-01 17:58N 09°25' W 079°56'0 0.0
2018-Feb-01 17:28N 09°25' W 079°56'0 0.0
2018-Feb-01 16:58N 09°25' W 079°56'0 0.0
2018-Feb-01 16:28N 09°25' W 079°56'0 0.0
2018-Feb-01 15:58N 09°25' W 079°56'0 0.0
2018-Feb-01 13:28N 09°25' W 079°56'1 2.1
2018-Feb-01 13:00N 09°25' W 079°55'3 5.8
2018-Feb-01 12:30N 09°28' W 079°54'7 9.8
2018-Feb-01 11:50N 09°34' W 079°52'  
Track history (hours):
 
Tides and Currents Weather Stations Pressure Air Temp Water Temp Dewpoint Dewpoint Depression Visibility Wind Speed Wind Dir Waves Ship Positions

Ocean Prize

Last reported at 2018-Feb-04 00:46 UTC. Time now 2018-Feb-25 02:18 UTC.
Position N 09°11' W 079°52'.
Warning: this ship's position is 21 days out of date.

Length 115 m; draft 8.6 m.

Type: Ship (hazmat cat C). MMSI: 235060752.

Date/timePositionNaut miles runAvg speedWind from/ knotsBaromVisibWave heightAir tempDewpointWater temp
2018-Feb-04 00:46N 09°11' W 079°52'412.3
2018-Feb-04 00:28N 09°13' W 079°55'4 7.8
2018-Feb-04 00:00N 09°16' W 079°55'0 0.4
2018-Feb-03 23:30N 09°16' W 079°55'0 0.9
2018-Feb-03 23:00N 09°17' W 079°55'1 2.0
2018-Feb-03 22:30N 09°18' W 079°55'1 1.9
2018-Feb-03 22:00N 09°19' W 079°55'3 5.7
2018-Feb-03 21:30N 09°22' W 079°55'1 2.3
2018-Feb-03 20:58N 09°23' W 079°56'0 0.0
2018-Feb-03 20:28N 09°23' W 079°56'0 0.0
2018-Feb-03 19:58N 09°23' W 079°56'0 0.0
2018-Feb-03 18:28N 09°23' W 079°56'0 0.0
2018-Feb-03 17:58N 09°23' W 079°56'0 0.0
2018-Feb-03 17:28N 09°23' W 079°56'0 0.0
2018-Feb-03 16:58N 09°23' W 079°56'0 0.0
2018-Feb-03 15:58N 09°23' W 079°56'0 0.0
2018-Feb-03 15:28N 09°23' W 079°56'0 0.0
2018-Feb-03 14:58N 09°23' W 079°56'0 0.1
2018-Feb-03 14:28N 09°23' W 079°56'0 0.2
2018-Feb-03 13:58N 09°23' W 079°56'1 1.8
2018-Feb-03 13:31N 09°23' W 079°55'2 3.9
2018-Feb-03 13:01N 09°25' W 079°56'0 0.7
2018-Feb-03 12:25N 09°25' W 079°56'0 0.0
2018-Feb-03 11:58N 09°25' W 079°56'0 0.0
2018-Feb-03 11:28N 09°25' W 079°56'0 0.0
2018-Feb-03 10:58N 09°25' W 079°56'0 0.0
2018-Feb-03 10:28N 09°25' W 079°56'0 0.0
2018-Feb-03 09:58N 09°25' W 079°56'0 0.0
2018-Feb-03 09:28N 09°25' W 079°56'0 0.0
2018-Feb-03 08:58N 09°25' W 079°56'0 0.0
2018-Feb-03 08:28N 09°25' W 079°56'0 0.0
2018-Feb-03 07:58N 09°25' W 079°56'0 0.0
2018-Feb-03 06:28N 09°25' W 079°56'0 0.0
2018-Feb-03 05:58N 09°25' W 079°56'0 0.0
2018-Feb-03 05:22N 09°25' W 079°56'0 0.0
2018-Feb-03 04:58N 09°25' W 079°56'0 0.0
2018-Feb-03 03:58N 09°25' W 079°56'0 0.0
2018-Feb-03 03:28N 09°25' W 079°56'0 0.0
2018-Feb-03 01:58N 09°25' W 079°56'0 0.0
2018-Feb-03 01:28N 09°25' W 079°56'0 0.0
2018-Feb-03 00:49N 09°25' W 079°56'0 0.0
2018-Feb-03 00:19N 09°25' W 079°56'0 0.0
2018-Feb-02 23:52N 09°25' W 079°56'0 0.0
2018-Feb-02 23:28N 09°25' W 079°56'0 0.0
2018-Feb-02 22:58N 09°25' W 079°56'0 0.0
2018-Feb-02 22:22N 09°25' W 079°56'0 0.1
2018-Feb-02 21:58N 09°25' W 079°56'0 0.0
2018-Feb-02 21:28N 09°25' W 079°56'0 0.0
2018-Feb-02 20:58N 09°25' W 079°56'0 0.0
2018-Feb-02 20:28N 09°25' W 079°56'0 0.0
2018-Feb-02 19:55N 09°25' W 079°56'0 0.0
2018-Feb-02 18:58N 09°25' W 079°56'0 0.0
2018-Feb-02 18:28N 09°25' W 079°56'0 0.0
2018-Feb-02 17:58N 09°25' W 079°56'0 0.0
2018-Feb-02 17:28N 09°25' W 079°56'0 0.0
2018-Feb-02 16:58N 09°25' W 079°56'0 0.0
2018-Feb-02 16:28N 09°25' W 079°56'0 0.0
2018-Feb-02 15:28N 09°25' W 079°56'0 0.0
2018-Feb-02 14:28N 09°25' W 079°56'0 0.0
2018-Feb-02 13:55N 09°25' W 079°56'0 0.0
2018-Feb-02 13:25N 09°25' W 079°56'0 0.0
2018-Feb-02 12:58N 09°25' W 079°56'0 0.0
2018-Feb-02 12:28N 09°25' W 079°56'0 0.0
2018-Feb-02 11:58N 09°25' W 079°56'0 0.0
2018-Feb-02 11:28N 09°25' W 079°56'0 0.0
2018-Feb-02 10:58N 09°25' W 079°56'0 0.0
2018-Feb-02 10:28N 09°25' W 079°56'0 0.0
2018-Feb-02 09:58N 09°25' W 079°56'0 0.0
2018-Feb-02 09:28N 09°25' W 079°56'0 0.0
2018-Feb-02 08:58N 09°25' W 079°56'0 0.0
2018-Feb-02 08:28N 09°25' W 079°56'0 0.0
2018-Feb-02 07:55N 09°25' W 079°56'0 0.0
2018-Feb-02 07:28N 09°25' W 079°56'0 0.0
2018-Feb-02 06:58N 09°25' W 079°56'0 0.0
2018-Feb-02 06:28N 09°25' W 079°56'0 0.0
2018-Feb-02 05:58N 09°25' W 079°56'0 0.0
2018-Feb-02 05:28N 09°25' W 079°56'0 0.0
2018-Feb-02 04:55N 09°25' W 079°56'0 0.0
2018-Feb-02 04:28N 09°25' W 079°56'0 0.0
2018-Feb-02 03:58N 09°25' W 079°56'0 0.0
2018-Feb-02 03:28N 09°25' W 079°56'0 0.0
2018-Feb-02 02:58N 09°25' W 079°56'0 0.0
2018-Feb-02 02:28N 09°25' W 079°56'0 0.0
2018-Feb-02 01:58N 09°25' W 079°56'0 0.0
2018-Feb-02 01:28N 09°25' W 079°56'0 0.0
2018-Feb-02 00:58N 09°25' W 079°56'0 0.0
2018-Feb-02 00:28N 09°25' W 079°56'0 0.0
2018-Feb-01 23:58N 09°25' W 079°56'0 0.0
2018-Feb-01 23:28N 09°25' W 079°56'0 0.0
2018-Feb-01 22:58N 09°25' W 079°56'0 0.0
2018-Feb-01 21:58N 09°25' W 079°56'0 0.0
2018-Feb-01 21:25N 09°25' W 079°56'0 0.0
2018-Feb-01 19:28N 09°25' W 079°56'0 0.0
2018-Feb-01 18:52N 09°25' W 079°56'0 0.0
2018-Feb-01 18:28N 09°25' W 079°56'0 0.0
2018-Feb-01 17:58N 09°25' W 079°56'0 0.0
2018-Feb-01 17:28N 09°25' W 079°56'0 0.0
2018-Feb-01 16:58N 09°25' W 079°56'0 0.0
2018-Feb-01 16:28N 09°25' W 079°56'0 0.0
2018-Feb-01 15:58N 09°25' W 079°56'0 0.0
2018-Feb-01 13:28N 09°25' W 079°56'1 2.1
2018-Feb-01 13:00N 09°25' W 079°55'3 5.8
2018-Feb-01 12:30N 09°28' W 079°54'7 9.8
2018-Feb-01 11:50N 09°34' W 079°52'  

Dump ship's entire track history